Igapora, Brazil
Current Conditions -  °F | °C
As of 5:00 AM on Saturday 20 Dec 2014 (Local Time) from SBQV Reporting Station
Broken Clouds Broken Clouds  
Wind Chill: 66°   Ceiling: 7000
Heat Index: 66°   Visibility: 6mi
Dew Point: 66°   Wind: 14mph
Humidity: 100%   Direction: 20°NNE
Pressure: 30.03"   Gusts: NA
Location:  13.77°S, 42.72°W
Report Text: SBQV 200800Z 02012KT 9999 SCT006 BKN070 19/19 Q1017
Loading
Personal Weather Stations






























Interactive Weather Map New forecast layout! Learn more

10-Day Weather Forecast

Advertisements
Track Severe Weather on mobile